Time;durP1;ratioP1;P1;durP2;ratioP2;P2;SDS_P1;SDS_P2;PMS_P1;PMS_P2;Temp;Humidity;BMP_temperature;BMP_pressure;BME280_temperature;BME280_humidity;BME280_pressure;Samples;Min_cycle;Max_cycle;Signal;HPM_P1;HPM_P2
2021/04/10 00:01:14;;;;;;;24.63;21.50;;;8.90;99.90;;;;;;5034390;28;20190;-73
2021/04/10 00:03:40;;;;;;;24.07;21.47;;;8.90;99.90;;;;;;5032264;28;20472;-73
2021/04/10 00:06:05;;;;;;;24.07;21.27;;;8.90;99.90;;;;;;5033551;28;20492;-73
2021/04/10 00:08:31;;;;;;;23.30;20.37;;;8.90;99.90;;;;;;5032011;28;20258;-73
2021/04/10 00:10:57;;;;;;;27.53;20.37;;;8.90;99.90;;;;;;5033837;28;20183;-72
2021/04/10 00:13:22;;;;;;;24.73;22.03;;;8.80;99.90;;;;;;5034172;28;20188;-73
2021/04/10 00:15:48;;;;;;;26.03;22.13;;;8.80;99.90;;;;;;5034428;28;20703;-73
2021/04/10 00:18:14;;;;;;;27.33;22.73;;;8.70;99.90;;;;;;5033202;28;20207;-72
2021/04/10 00:20:39;;;;;;;28.13;21.93;;;8.70;99.90;;;;;;5032174;28;20278;-73
2021/04/10 00:23:05;;;;;;;27.50;22.77;;;8.70;99.90;;;;;;5033190;28;20201;-72
2021/04/10 00:25:30;;;;;;;28.63;22.77;;;8.70;99.90;;;;;;5033288;28;20213;-72
2021/04/10 00:27:56;;;;;;;25.57;22.80;;;8.60;99.90;;;;;;5033386;28;20565;-72
2021/04/10 00:30:22;;;;;;;27.57;24.57;;;8.60;99.90;;;;;;5033382;28;20177;-71
2021/04/10 00:32:47;;;;;;;33.93;23.57;;;8.60;99.90;;;;;;5033515;28;20189;-71
2021/04/10 00:35:13;;;;;;;31.43;23.70;;;8.70;99.90;;;;;;5033280;28;20182;-72
2021/04/10 00:37:39;;;;;;;25.57;22.80;;;8.70;99.90;;;;;;5033200;28;20458;-71
2021/04/10 00:40:07;;;;;;;31.40;22.70;;;8.80;99.90;;;;;;5033202;28;20620;-73
2021/04/10 00:42:34;;;;;;;24.57;21.97;;;9.00;99.90;;;;;;5032895;28;20414;-73
2021/04/10 00:44:59;;;;;;;25.77;22.43;;;9.10;99.90;;;;;;5033023;28;20457;-73
2021/04/10 00:47:25;;;;;;;25.87;22.20;;;9.10;99.90;;;;;;5033092;28;20433;-73
2021/04/10 00:49:50;;;;;;;26.43;23.47;;;9.20;99.90;;;;;;5032251;28;20736;-73
2021/04/10 00:52:18;;;;;;;26.17;23.20;;;9.20;99.90;;;;;;5032969;28;20167;-73
2021/04/10 00:54:47;;;;;;;26.67;23.77;;;9.20;99.90;;;;;;5031868;28;20275;-73
2021/04/10 00:57:12;;;;;;;26.43;23.30;;;9.00;99.90;;;;;;5033443;28;20425;-72
2021/04/10 00:59:38;;;;;;;25.43;22.67;;;8.90;99.90;;;;;;5031887;28;20546;-72
2021/04/10 01:02:03;;;;;;;24.87;22.17;;;8.90;99.90;;;;;;5032831;28;20281;-71
2021/04/10 01:04:30;;;;;;;30.07;25.13;;;8.90;99.90;;;;;;5031531;28;20179;-71
2021/04/10 01:06:56;;;;;;;28.30;23.40;;;8.90;99.90;;;;;;5032968;28;20195;-71
2021/04/10 01:09:21;;;;;;;27.00;22.57;;;8.80;99.90;;;;;;5032969;28;20746;-72
2021/04/10 01:12:05;;;;;;;31.13;24.13;;;8.70;99.90;;;;;;5032731;28;20195;-73
2021/04/10 01:14:36;;;;;;;29.90;25.60;;;8.70;99.90;;;;;;5032972;28;20232;-72
2021/04/10 01:17:08;;;;;;;26.20;23.00;;;8.70;99.90;;;;;;5032717;28;20574;-72
2021/04/10 01:20:08;;;;;;;28.03;22.53;;;8.70;99.90;;;;;;5032918;28;20411;-73
2021/04/10 01:23:09;;;;;;;27.93;24.30;;;8.80;99.90;;;;;;5036453;28;20413;-73
2021/04/10 01:25:52;;;;;;;27.70;23.40;;;8.90;99.90;;;;;;5036679;28;20463;-71
2021/04/10 01:28:47;;;;;;;31.50;23.83;;;9.00;99.90;;;;;;5036644;28;20431;-73
2021/04/10 01:31:16;;;;;;;30.63;23.13;;;9.10;99.90;;;;;;5037054;28;20885;-72
2021/04/10 01:33:47;;;;;;;25.10;22.50;;;9.00;99.90;;;;;;5035240;28;20495;-72
2021/04/10 01:36:14;;;;;;;29.00;24.53;;;9.00;99.90;;;;;;5039907;28;20445;-72
2021/04/10 01:38:43;;;;;;;32.33;25.60;;;8.90;99.90;;;;;;5040444;28;20441;-72
2021/04/10 01:41:10;;;;;;;28.87;24.90;;;8.90;99.90;;;;;;5040644;28;20946;-71
2021/04/10 01:43:37;;;;;;;31.13;24.93;;;8.90;99.90;;;;;;5040841;28;20755;-71
2021/04/10 01:46:03;;;;;;;27.70;24.70;;;8.90;99.90;;;;;;5038124;28;20467;-72
2021/04/10 01:48:32;;;;;;;32.90;26.13;;;8.90;99.90;;;;;;5037344;28;20409;-71
2021/04/10 01:51:00;;;;;;;29.57;25.60;;;9.00;99.90;;;;;;5036801;28;20715;-71
2021/04/10 01:53:26;;;;;;;28.10;25.00;;;9.00;99.90;;;;;;5035543;28;20413;-71
2021/04/10 01:55:53;;;;;;;28.50;24.77;;;9.10;99.90;;;;;;5036654;28;20416;-72
2021/04/10 01:58:19;;;;;;;26.80;22.73;;;9.10;99.90;;;;;;5036618;28;20602;-72
2021/04/10 02:00:46;;;;;;;28.10;24.30;;;9.00;99.90;;;;;;5037247;28;20413;-72
2021/04/10 02:03:16;;;;;;;28.70;24.43;;;9.10;99.90;;;;;;5036673;28;20416;-72
2021/04/10 02:05:42;;;;;;;27.13;24.23;;;9.10;99.90;;;;;;5035642;28;20548;-72
2021/04/10 02:08:10;;;;;;;26.93;23.60;;;9.10;99.90;;;;;;5034969;28;20440;-72
2021/04/10 02:10:36;;;;;;;31.63;24.77;;;9.20;99.90;;;;;;5036159;28;20456;-73
2021/04/10 02:13:02;;;;;;;30.13;24.00;;;9.20;99.90;;;;;;5036005;28;20405;-72
2021/04/10 02:15:28;;;;;;;29.37;24.43;;;9.30;99.90;;;;;;5036019;28;20783;-72
2021/04/10 02:17:57;;;;;;;27.40;23.87;;;9.30;99.90;;;;;;5036037;28;20433;-73
2021/04/10 02:20:23;;;;;;;29.87;25.40;;;9.40;99.90;;;;;;5035645;28;20171;-72
2021/04/10 02:22:51;;;;;;;29.60;24.20;;;9.40;99.90;;;;;;5035948;28;20430;-72
2021/04/10 02:25:18;;;;;;;25.03;22.40;;;9.40;99.90;;;;;;5036086;28;20221;-72
2021/04/10 02:27:44;;;;;;;29.00;25.47;;;9.40;99.90;;;;;;5035314;28;20777;-73
2021/04/10 02:30:10;;;;;;;29.27;24.67;;;9.40;99.90;;;;;;5035908;28;20413;-73
2021/04/10 02:32:44;;;;;;;31.47;26.50;;;9.40;99.90;;;;;;5033193;28;20274;-73
2021/04/10 02:35:39;;;;;;;29.30;24.63;;;9.40;99.90;;;;;;5035810;28;20445;-73
2021/04/10 02:38:06;;;;;;;29.23;24.27;;;9.40;99.90;;;;;;5049335;28;20455;-73
2021/04/10 02:40:35;;;;;;;29.03;25.27;;;9.40;99.90;;;;;;5052323;28;20457;-73
2021/04/10 02:43:03;;;;;;;30.37;24.97;;;9.40;99.90;;;;;;5037800;28;20550;-72
2021/04/10 02:45:29;;;;;;;32.80;26.53;;;9.30;99.90;;;;;;5036350;28;20960;-72
2021/04/10 02:48:03;;;;;;;31.10;26.17;;;9.30;99.90;;;;;;5034677;28;20441;-72
2021/04/10 02:50:29;;;;;;;33.50;26.93;;;9.40;99.90;;;;;;5036229;28;20867;-72
2021/04/10 02:52:57;;;;;;;33.50;27.30;;;9.30;99.90;;;;;;5035590;28;20413;-72
2021/04/10 02:55:32;;;;;;;29.60;25.93;;;9.40;99.90;;;;;;5035566;28;20517;-72
2021/04/10 02:58:02;;;;;;;32.07;25.60;;;9.30;99.90;;;;;;5035521;28;20519;-72
2021/04/10 03:00:29;;;;;;;30.50;27.20;;;9.30;99.90;;;;;;5035013;28;20426;-72
2021/04/10 03:02:57;;;;;;;29.60;24.93;;;9.30;99.90;;;;;;5034944;28;20408;-72
2021/04/10 03:05:23;;;;;;;30.70;25.70;;;9.40;99.90;;;;;;5034617;28;20468;-71
2021/04/10 03:07:52;;;;;;;33.17;27.27;;;9.40;99.90;;;;;;5035228;28;20444;-73
2021/04/10 03:10:18;;;;;;;30.97;25.70;;;9.40;99.90;;;;;;5035164;28;20444;-72
2021/04/10 03:12:45;;;;;;;31.67;27.50;;;9.30;99.90;;;;;;5034952;28;20406;-72
2021/04/10 03:15:15;;;;;;;38.70;28.70;;;9.20;99.90;;;;;;5035233;28;20424;-73
2021/04/10 03:17:42;;;;;;;34.17;28.67;;;9.10;99.90;;;;;;5034807;28;20448;-72
2021/04/10 03:20:12;;;;;;;32.97;28.30;;;9.20;99.90;;;;;;5034836;28;20413;-72
2021/04/10 03:22:41;;;;;;;35.07;28.67;;;9.20;99.90;;;;;;5034463;28;20410;-72
2021/04/10 03:25:06;;;;;;;36.83;29.43;;;9.20;99.90;;;;;;5033532;28;20503;-72
2021/04/10 03:27:32;;;;;;;36.10;28.60;;;9.10;99.90;;;;;;5034593;28;20427;-73
2021/04/10 03:29:58;;;;;;;36.13;28.47;;;9.10;99.90;;;;;;5034671;28;20182;-72
2021/04/10 03:32:26;;;;;;;33.30;28.00;;;9.10;99.90;;;;;;5034334;28;20205;-72
2021/04/10 03:34:51;;;;;;;34.40;28.87;;;9.10;99.90;;;;;;5034701;28;20773;-72
2021/04/10 03:37:17;;;;;;;36.50;29.07;;;9.10;99.90;;;;;;5034194;28;20453;-73
2021/04/10 03:39:43;;;;;;;37.90;29.27;;;9.20;99.90;;;;;;5034420;28;20426;-72
2021/04/10 03:42:09;;;;;;;37.07;29.03;;;9.20;99.90;;;;;;5033160;28;20178;-72
2021/04/10 03:44:35;;;;;;;32.83;29.20;;;9.20;99.90;;;;;;5034137;28;20182;-72
2021/04/10 03:47:00;;;;;;;34.83;28.00;;;9.20;99.90;;;;;;5034111;28;20437;-72
2021/04/10 03:49:26;;;;;;;38.43;30.30;;;9.20;99.90;;;;;;5034256;28;20218;-72
2021/04/10 03:51:51;;;;;;;34.00;29.37;;;9.20;99.90;;;;;;5034418;28;20187;-73
2021/04/10 03:54:17;;;;;;;35.80;30.00;;;9.20;99.90;;;;;;5034335;28;20186;-73
2021/04/10 03:56:43;;;;;;;37.20;29.17;;;9.20;99.90;;;;;;5033992;28;20655;-72
2021/04/10 03:59:08;;;;;;;43.77;32.37;;;9.10;99.90;;;;;;5032869;28;20210;-73
2021/04/10 04:01:34;;;;;;;39.50;31.70;;;9.00;99.90;;;;;;5033962;28;20195;-73
2021/04/10 04:03:59;;;;;;;39.20;30.50;;;9.00;99.90;;;;;;5033578;28;20196;-73
2021/04/10 04:06:25;;;;;;;40.60;30.87;;;9.00;99.90;;;;;;5032577;28;20732;-73
2021/04/10 04:08:50;;;;;;;40.50;33.13;;;9.00;99.90;;;;;;5033735;28;20417;-72
2021/04/10 04:11:16;;;;;;;43.53;32.80;;;9.00;99.90;;;;;;5033624;28;20309;-73
2021/04/10 04:13:41;;;;;;;38.50;30.70;;;9.00;99.90;;;;;;5033675;28;20178;-72
2021/04/10 04:16:07;;;;;;;39.17;30.33;;;9.00;99.90;;;;;;5033734;28;20182;-72
2021/04/10 04:18:32;;;;;;;40.53;30.87;;;9.10;99.90;;;;;;5033745;28;20182;-72
2021/04/10 04:20:58;;;;;;;37.77;31.13;;;9.10;99.90;;;;;;5033821;28;20171;-72
2021/04/10 04:23:23;;;;;;;37.97;30.27;;;9.10;99.90;;;;;;5033280;28;20204;-72
2021/04/10 04:25:49;;;;;;;39.40;31.63;;;9.20;99.90;;;;;;5033597;28;20198;-72
2021/04/10 04:28:17;;;;;;;40.40;32.03;;;9.20;99.90;;;;;;5034060;28;20191;-72
2021/04/10 04:30:42;;;;;;;39.57;29.97;;;9.10;99.90;;;;;;5033391;28;20620;-73
2021/04/10 04:33:08;;;;;;;40.60;31.60;;;9.10;99.90;;;;;;5033537;28;20414;-74
2021/04/10 04:35:33;;;;;;;40.97;31.80;;;9.00;99.90;;;;;;5033802;28;20171;-73
2021/04/10 04:37:59;;;;;;;42.57;32.07;;;9.00;99.90;;;;;;5033496;28;20219;-73
2021/04/10 04:40:24;;;;;;;41.70;32.80;;;9.00;99.90;;;;;;5033629;28;20177;-73
2021/04/10 04:42:50;;;;;;;42.20;30.60;;;8.90;99.90;;;;;;5033332;28;20174;-72
2021/04/10 04:45:15;;;;;;;44.33;32.93;;;8.90;99.90;;;;;;5033290;28;20693;-72
2021/04/10 04:47:41;;;;;;;49.20;33.23;;;8.90;99.90;;;;;;5033481;28;20193;-72
2021/04/10 04:50:07;;;;;;;45.03;33.77;;;8.80;99.90;;;;;;5033504;28;20233;-72
2021/04/10 04:52:33;;;;;;;46.60;33.47;;;8.80;99.90;;;;;;5033226;28;20202;-72
2021/04/10 04:54:58;;;;;;;46.20;33.23;;;8.80;99.90;;;;;;5034023;28;20448;-71
2021/04/10 04:57:24;;;;;;;49.00;35.60;;;8.80;99.90;;;;;;5037382;28;20195;-71
2021/04/10 04:59:50;;;;;;;46.60;33.10;;;8.70;99.90;;;;;;5037699;28;20198;-72
2021/04/10 05:02:15;;;;;;;49.83;35.80;;;8.70;99.90;;;;;;5035885;28;20581;-72
2021/04/10 05:04:41;;;;;;;49.27;36.30;;;8.80;99.90;;;;;;5037190;28;20188;-72
2021/04/10 05:07:07;;;;;;;48.23;33.73;;;8.80;99.90;;;;;;5036564;28;20195;-71
2021/04/10 05:09:32;;;;;;;49.87;32.40;;;8.90;99.90;;;;;;5037354;28;20191;-72
2021/04/10 05:11:58;;;;;;;45.67;33.90;;;8.90;99.90;;;;;;5037320;28;20167;-72
2021/04/10 05:14:23;;;;;;;47.00;33.53;;;8.90;99.90;;;;;;5037445;28;20171;-72
2021/04/10 05:16:49;;;;;;;44.80;33.80;;;8.90;99.90;;;;;;5036740;28;20199;-73
2021/04/10 05:19:14;;;;;;;46.87;33.90;;;8.90;99.90;;;;;;5036745;28;20531;-72
2021/04/10 05:21:40;;;;;;;46.93;35.60;;;8.80;99.90;;;;;;5036755;28;20227;-72
2021/04/10 05:24:06;;;;;;;50.17;34.10;;;8.80;99.90;;;;;;5036175;28;20612;-73
2021/04/10 05:26:32;;;;;;;48.23;32.60;;;8.80;99.90;;;;;;5036274;28;20212;-72
2021/04/10 05:28:57;;;;;;;48.43;34.67;;;8.70;99.90;;;;;;5036421;28;20933;-72
2021/04/10 05:31:23;;;;;;;53.60;34.17;;;8.80;99.90;;;;;;5036527;28;20647;-72
2021/04/10 05:33:49;;;;;;;46.93;34.70;;;8.80;99.90;;;;;;5036362;28;20535;-72
2021/04/10 05:36:14;;;;;;;49.30;33.33;;;8.80;99.90;;;;;;5036337;28;20536;-72
2021/04/10 05:38:40;;;;;;;50.37;33.80;;;8.70;99.90;;;;;;5036324;28;20229;-72
2021/04/10 05:41:07;;;;;;;50.30;33.60;;;8.70;99.90;;;;;;5036175;28;20183;-72
2021/04/10 05:43:33;;;;;;;49.27;32.63;;;8.60;99.90;;;;;;5036285;28;20167;-72
2021/04/10 05:45:58;;;;;;;48.40;34.37;;;8.50;99.90;;;;;;5035076;28;20514;-73
2021/04/10 05:48:24;;;;;;;45.50;32.40;;;8.50;99.90;;;;;;5036440;28;20536;-72
2021/04/10 05:50:49;;;;;;;46.63;31.27;;;8.50;99.90;;;;;;5036536;28;20167;-72
2021/04/10 05:53:15;;;;;;;50.97;33.23;;;8.50;99.90;;;;;;5036002;28;20250;-73
2021/04/10 05:55:40;;;;;;;47.17;33.20;;;8.60;99.90;;;;;;5036171;28;20206;-73
2021/04/10 05:58:06;;;;;;;44.33;31.10;;;8.70;99.90;;;;;;5036217;28;20556;-73
2021/04/10 06:00:32;;;;;;;47.90;31.77;;;8.80;99.90;;;;;;5036295;28;20175;-73
2021/04/10 06:02:57;;;;;;;46.97;31.87;;;8.90;99.90;;;;;;5035941;28;20174;-73
2021/04/10 06:05:23;;;;;;;47.20;31.97;;;8.90;99.90;;;;;;5036213;28;20272;-72
2021/04/10 06:07:50;;;;;;;44.83;31.33;;;9.00;99.90;;;;;;5033510;28;20194;-73
2021/04/10 06:10:18;;;;;;;43.73;30.83;;;9.10;99.90;;;;;;5033691;28;20832;-71
2021/04/10 06:12:44;;;;;;;46.93;31.40;;;9.20;99.90;;;;;;5015678;28;20934;-72
2021/04/10 06:15:11;;;;;;;46.37;31.33;;;9.20;99.90;;;;;;5014948;28;20420;-73
2021/04/10 06:17:37;;;;;;;45.30;31.13;;;9.30;99.90;;;;;;5015251;28;20206;-74
2021/04/10 06:20:07;;;;;;;47.67;32.60;;;9.30;99.90;;;;;;5016462;28;20848;-72
2021/04/10 06:22:33;;;;;;;49.20;32.23;;;9.40;99.90;;;;;;5014641;28;20419;-72
2021/04/10 06:24:58;;;;;;;49.13;30.67;;;9.40;99.90;;;;;;5016757;28;20477;-72
2021/04/10 06:27:24;;;;;;;44.67;30.90;;;9.40;99.90;;;;;;5016061;28;20266;-73
2021/04/10 06:29:49;;;;;;;53.57;33.00;;;9.50;99.90;;;;;;5022670;28;20222;-73
2021/04/10 06:32:15;;;;;;;51.13;31.90;;;9.40;99.90;;;;;;5019837;28;20179;-72
2021/04/10 06:34:41;;;;;;;52.83;33.70;;;9.30;99.90;;;;;;5035291;28;20176;-73
2021/04/10 06:37:07;;;;;;;49.90;32.17;;;9.40;99.90;;;;;;5032509;28;20567;-72
2021/04/10 06:39:32;;;;;;;45.50;29.57;;;9.40;99.90;;;;;;5016856;28;20407;-73
2021/04/10 06:41:58;;;;;;;49.30;32.57;;;9.50;99.90;;;;;;5016364;28;20183;-71
2021/04/10 06:44:24;;;;;;;47.70;31.67;;;9.60;99.90;;;;;;5015087;28;20269;-74
2021/04/10 06:46:50;;;;;;;54.60;33.67;;;9.70;99.90;;;;;;5029750;28;20928;-73
2021/04/10 06:49:18;;;;;;;44.87;30.80;;;9.80;99.90;;;;;;5034743;28;20200;-74
2021/04/10 06:51:44;;;;;;;46.60;31.23;;;9.80;99.90;;;;;;5036682;28;20430;-72
2021/04/10 06:54:14;;;;;;;48.80;32.97;;;9.80;99.90;;;;;;5035605;28;20765;-73
2021/04/10 06:56:45;;;;;;;45.03;30.10;;;9.90;99.90;;;;;;5036657;28;20617;-73
2021/04/10 06:59:28;;;;;;;43.93;30.57;;;9.90;99.90;;;;;;5019157;28;20437;-72
2021/04/10 07:01:54;;;;;;;44.53;30.13;;;10.00;99.90;;;;;;5016081;28;20525;-73
2021/04/10 07:04:20;;;;;;;44.97;30.80;;;9.90;99.90;;;;;;5032796;28;20806;-72
2021/04/10 07:06:46;;;;;;;42.10;29.57;;;9.90;99.90;;;;;;5035984;28;20473;-73
2021/04/10 07:09:12;;;;;;;43.87;29.67;;;9.90;99.90;;;;;;5035738;28;20484;-72
2021/04/10 07:11:39;;;;;;;41.97;29.73;;;10.00;99.90;;;;;;5034376;28;20534;-72
2021/04/10 07:14:04;;;;;;;40.03;30.03;;;10.10;99.90;;;;;;5034205;28;20487;-72
2021/04/10 07:16:37;;;;;;;43.13;30.93;;;10.10;99.90;;;;;;5035197;28;20469;-72
2021/04/10 07:19:11;;;;;;;46.10;30.20;;;10.20;99.90;;;;;;5035281;28;20537;-72
2021/04/10 07:21:37;;;;;;;40.20;29.40;;;10.30;99.90;;;;;;5035538;28;20777;-73
2021/04/10 07:24:02;;;;;;;43.60;32.07;;;10.40;99.90;;;;;;5035235;28;20419;-72
2021/04/10 07:26:54;;;;;;;42.37;31.73;;;10.50;99.90;;;;;;5034061;28;20461;-72
2021/04/10 07:29:49;;;;;;;39.90;29.13;;;10.50;99.90;;;;;;5015624;28;20195;-73
2021/04/10 07:32:30;;;;;;;41.17;29.70;;;10.50;99.90;;;;;;5015691;28;20464;-73
2021/04/10 07:34:56;;;;;;;42.47;29.57;;;10.50;99.90;;;;;;5015541;28;20500;-72
2021/04/10 07:37:34;;;;;;;44.67;31.20;;;10.60;99.90;;;;;;5022696;28;20535;-72
2021/04/10 07:40:10;;;;;;;44.67;30.93;;;10.70;99.90;;;;;;5034322;28;20501;-73
2021/04/10 07:42:41;;;;;;;42.20;30.57;;;10.80;99.90;;;;;;5034366;28;20409;-73
2021/04/10 07:45:33;;;;;;;41.90;29.77;;;10.90;99.90;;;;;;5034015;28;20813;-73
2021/04/10 07:48:02;;;;;;;42.13;30.40;;;11.00;99.90;;;;;;5033990;28;20433;-73
2021/04/10 07:50:29;;;;;;;44.40;31.27;;;11.10;99.90;;;;;;5034612;28;20409;-72
2021/04/10 07:52:54;;;;;;;38.10;28.77;;;11.20;99.90;;;;;;5034208;28;20410;-74
2021/04/10 07:55:39;;;;;;;41.50;29.90;;;11.20;99.90;;;;;;5034291;28;20471;-73
2021/04/10 07:58:23;;;;;;;39.20;31.30;;;11.20;99.90;;;;;;5026197;28;20223;-74
2021/04/10 08:00:51;;;;;;;40.80;31.47;;;11.30;99.90;;;;;;5013036;28;20410;-72
2021/04/10 08:03:26;;;;;;;38.03;29.60;;;11.30;99.90;;;;;;5013904;28;20446;-73
2021/04/10 08:05:52;;;;;;;37.73;29.00;;;11.30;99.90;;;;;;5014252;28;20460;-73
2021/04/10 08:08:20;;;;;;;38.40;28.43;;;11.30;99.90;;;;;;5014398;28;20425;-72
2021/04/10 08:10:46;;;;;;;35.00;28.13;;;11.20;99.90;;;;;;5014141;28;20406;-72
2021/04/10 08:13:13;;;;;;;37.80;29.80;;;11.20;99.90;;;;;;5013749;28;20402;-73
2021/04/10 08:15:38;;;;;;;34.80;28.83;;;11.20;99.90;;;;;;5013493;28;20528;-73
2021/04/10 08:18:23;;;;;;;41.63;30.07;;;11.30;99.90;;;;;;5011884;28;20461;-73
2021/04/10 08:20:51;;;;;;;40.90;30.37;;;11.40;99.90;;;;;;5013020;28;20183;-73
2021/04/10 08:23:22;;;;;;;42.10;31.27;;;11.50;99.90;;;;;;5011918;28;20442;-73
2021/04/10 08:25:49;;;;;;;37.13;29.73;;;11.60;99.90;;;;;;5013040;28;20497;-73
2021/04/10 08:28:18;;;;;;;35.20;28.13;;;11.60;99.90;;;;;;5012748;28;20430;-72
2021/04/10 08:30:44;;;;;;;41.90;31.60;;;11.60;99.90;;;;;;5009886;28;20911;-72
2021/04/10 08:33:10;;;;;;;38.97;31.00;;;11.60;99.90;;;;;;5011269;28;20818;-74
2021/04/10 08:35:37;;;;;;;35.73;29.00;;;11.60;99.90;;;;;;5019607;28;20413;-73
2021/04/10 08:38:05;;;;;;;35.77;29.97;;;11.60;99.90;;;;;;5018095;28;20225;-72
2021/04/10 08:40:33;;;;;;;35.23;29.13;;;11.70;99.90;;;;;;5012641;28;20743;-72
2021/04/10 08:43:00;;;;;;;41.20;30.13;;;11.70;99.90;;;;;;5016496;28;20596;-72
2021/04/10 08:45:31;;;;;;;34.90;27.90;;;11.80;99.90;;;;;;5019797;28;20465;-72
2021/04/10 08:48:04;;;;;;;33.83;28.70;;;11.90;99.90;;;;;;5012861;28;20430;-73
2021/04/10 08:50:35;;;;;;;36.17;28.90;;;12.00;99.90;;;;;;5012688;28;20903;-73
2021/04/10 08:53:11;;;;;;;36.13;28.27;;;12.10;99.90;;;;;;5011059;28;20429;-73
2021/04/10 08:55:40;;;;;;;37.90;30.17;;;12.20;99.90;;;;;;5011523;28;20418;-73
2021/04/10 08:58:24;;;;;;;41.43;31.83;;;12.30;99.90;;;;;;5012811;28;20811;-72
2021/04/10 09:01:01;;;;;;;39.27;30.30;;;12.30;99.90;;;;;;5011657;28;20442;-73
2021/04/10 09:03:45;;;;;;;39.77;31.77;;;12.30;99.90;;;;;;5012521;28;20414;-73
2021/04/10 09:06:16;;;;;;;41.70;32.37;;;12.40;99.90;;;;;;5010957;28;20462;-72
2021/04/10 09:08:42;;;;;;;38.60;30.53;;;12.40;99.90;;;;;;5013237;28;20419;-72
2021/04/10 09:11:08;;;;;;;39.13;31.40;;;12.30;99.90;;;;;;5010983;28;20522;-72
2021/04/10 09:13:42;;;;;;;36.97;29.50;;;12.30;99.90;;;;;;5011899;28;20271;-71
2021/04/10 09:16:40;;;;;;;35.97;28.00;;;12.20;99.90;;;;;;5012558;28;20437;-73
2021/04/10 09:19:22;;;;;;;36.97;29.50;;;12.30;99.90;;;;;;4993601;28;20425;-71
2021/04/10 09:21:52;;;;;;;39.57;27.40;;;12.30;99.90;;;;;;5012512;28;20757;-72
2021/04/10 09:24:18;;;;;;;32.03;26.70;;;12.40;99.90;;;;;;5008411;28;20493;-73
2021/04/10 09:27:02;;;;;;;36.00;28.17;;;12.50;99.90;;;;;;4993804;28;20451;-72
2021/04/10 09:29:31;;;;;;;32.20;27.70;;;12.50;99.90;;;;;;4993458;28;20400;-72
2021/04/10 09:32:01;;;;;;;33.30;27.73;;;12.60;99.90;;;;;;5001603;28;20427;-73
2021/04/10 09:34:46;;;;;;;33.80;28.13;;;12.70;99.90;;;;;;5013006;28;20407;-73
2021/04/10 09:37:21;;;;;;;36.90;28.00;;;12.60;99.90;;;;;;5015624;28;20480;-73
2021/04/10 09:40:00;;;;;;;37.57;27.80;;;12.70;99.90;;;;;;5011567;28;20433;-71
2021/04/10 09:42:38;;;;;;;35.10;28.23;;;12.80;99.90;;;;;;5015685;28;20410;-72
2021/04/10 09:45:17;;;;;;;32.33;27.23;;;12.90;99.90;;;;;;5015735;28;20418;-73
2021/04/10 09:47:55;;;;;;;34.60;28.63;;;13.00;99.90;;;;;;5016401;28;20748;-72
2021/04/10 09:50:27;;;;;;;36.17;30.25;;;13.00;99.90;;;;;;5014652;28;20931;-72
2021/04/10 09:53:15;;;;;;;34.93;28.60;;;13.00;99.90;;;;;;5014826;28;20585;-71
2021/04/10 09:56:00;;;;;;;33.70;28.00;;;13.00;99.90;;;;;;5015189;28;20430;-73
2021/04/10 09:58:25;;;;;;;37.47;29.67;;;13.00;99.90;;;;;;5017244;28;20430;-72
2021/04/10 10:00:54;;;;;;;32.20;27.10;;;12.90;99.90;;;;;;5016725;28;20410;-73
2021/04/10 10:03:24;;;;;;;36.43;29.17;;;12.90;99.90;;;;;;5015062;28;20214;-73
2021/04/10 10:05:54;;;;;;;34.07;27.87;;;12.70;99.90;;;;;;5015874;28;20512;-73
2021/04/10 10:08:27;;;;;;;34.17;27.40;;;12.50;99.90;;;;;;5015966;28;20436;-71
2021/04/10 10:10:57;;;;;;;36.83;27.37;;;12.40;99.90;;;;;;5014807;28;20443;-73
2021/04/10 10:13:25;;;;;;;30.23;25.70;;;12.30;99.90;;;;;;5015420;28;20418;-73
2021/04/10 10:15:53;;;;;;;34.00;26.30;;;12.30;99.90;;;;;;5014803;28;20450;-73
2021/04/10 10:18:25;;;;;;;33.67;27.77;;;12.40;99.90;;;;;;5014345;28;20438;-73
2021/04/10 10:21:10;;;;;;;33.60;25.97;;;12.50;99.90;;;;;;5014828;28;20418;-72
2021/04/10 10:23:38;;;;;;;31.80;24.03;;;12.60;99.90;;;;;;5015043;28;20411;-72
2021/04/10 10:26:06;;;;;;;28.17;24.83;;;12.70;99.90;;;;;;5014795;28;20458;-72
2021/04/10 10:28:33;;;;;;;32.30;26.37;;;12.80;99.90;;;;;;5015171;28;20403;-72
2021/04/10 10:31:04;;;;;;;30.70;26.00;;;12.80;99.90;;;;;;5015223;28;20407;-73
2021/04/10 10:33:29;;;;;;;32.20;26.17;;;12.90;99.90;;;;;;5014802;28;20490;-73
2021/04/10 10:35:55;;;;;;;28.50;23.80;;;13.00;99.90;;;;;;5014209;28;20517;-73
2021/04/10 10:38:21;;;;;;;30.50;26.00;;;13.00;99.90;;;;;;5030870;28;20260;-73
2021/04/10 10:40:52;;;;;;;30.23;25.93;;;13.10;99.90;;;;;;5033634;28;20233;-72
2021/04/10 10:43:18;;;;;;;30.70;24.63;;;13.20;99.90;;;;;;5016718;28;20207;-72
2021/04/10 10:45:52;;;;;;;29.93;24.47;;;13.20;99.90;;;;;;5014811;28;20454;-73
2021/04/10 10:48:34;;;;;;;31.53;26.57;;;13.20;99.90;;;;;;5013236;28;20712;-73
2021/04/10 10:50:59;;;;;;;31.57;25.10;;;13.20;99.90;;;;;;5014477;28;20422;-72
2021/04/10 10:53:34;;;;;;;34.13;25.27;;;13.00;99.90;;;;;;5014334;28;20476;-73
2021/04/10 10:56:02;;;;;;;29.97;25.40;;;12.80;99.90;;;;;;5014206;28;20199;-73
2021/04/10 10:58:46;;;;;;;30.33;23.80;;;12.60;99.90;;;;;;5015029;28;20723;-72
2021/04/10 11:01:16;;;;;;;22.20;19.60;;;12.70;99.90;;;;;;5015028;28;20411;-72
2021/04/10 11:04:06;;;;;;;27.40;21.40;;;12.70;99.90;;;;;;5014768;28;20461;-73
2021/04/10 11:06:34;;;;;;;25.73;22.20;;;12.80;99.90;;;;;;5013907;28;20477;-72
2021/04/10 11:09:02;;;;;;;25.90;23.10;;;12.90;99.90;;;;;;5013729;28;20457;-74
2021/04/10 11:11:31;;;;;;;25.47;22.10;;;12.80;99.90;;;;;;5014429;28;20456;-72
2021/04/10 11:13:58;;;;;;;27.10;22.27;;;12.80;99.90;;;;;;5013831;28;20478;-73
2021/04/10 11:16:24;;;;;;;27.67;22.23;;;12.80;99.90;;;;;;5014534;28;20966;-73
2021/04/10 11:18:54;;;;;;;26.30;22.00;;;12.80;99.90;;;;;;5013488;28;20422;-72
2021/04/10 11:21:26;;;;;;;29.20;24.40;;;12.80;99.90;;;;;;5014892;28;20168;-72
2021/04/10 11:23:59;;;;;;;25.10;21.00;;;12.80;99.90;;;;;;5014002;28;20411;-73
2021/04/10 11:26:36;;;;;;;26.63;21.27;;;12.70;99.90;;;;;;5012721;28;20974;-72
2021/04/10 11:29:35;;;;;;;26.20;21.27;;;12.70;99.90;;;;;;5014175;28;20441;-74
2021/04/10 11:32:10;;;;;;;23.87;21.30;;;12.50;99.90;;;;;;5011668;28;20415;-73
2021/04/10 11:34:38;;;;;;;28.53;22.17;;;12.40;99.90;;;;;;5011971;28;20505;-72
2021/04/10 11:37:05;;;;;;;27.13;24.25;;;12.40;99.90;;;;;;5010982;28;20438;-73
2021/04/10 11:39:45;;;;;;;25.40;22.43;;;12.40;99.90;;;;;;5011467;28;20578;-72
2021/04/10 11:42:30;;;;;;;26.03;23.17;;;12.30;99.90;;;;;;5011722;28;20758;-73
2021/04/10 11:45:00;;;;;;;28.30;23.60;;;12.30;99.90;;;;;;5011725;28;20411;-72
2021/04/10 11:47:31;;;;;;;31.50;24.20;;;12.40;99.90;;;;;;5011803;28;20466;-73
2021/04/10 11:50:07;;;;;;;28.77;22.77;;;12.60;99.90;;;;;;5011621;28;20484;-73
2021/04/10 11:52:34;;;;;;;23.77;21.20;;;12.80;99.90;;;;;;5010975;28;20402;-73
2021/04/10 11:55:11;;;;;;;24.03;20.70;;;12.90;99.90;;;;;;5011707;28;20827;-73
2021/04/10 11:57:40;;;;;;;24.07;20.23;;;13.10;99.90;;;;;;5011496;28;20434;-73
2021/04/10 12:00:17;;;;;;;24.37;19.97;;;13.10;99.90;;;;;;5011552;28;20411;-72
2021/04/10 12:02:45;;;;;;;23.90;20.07;;;13.20;99.90;;;;;;5010756;28;20472;-73
2021/04/10 12:05:22;;;;;;;25.53;19.40;;;13.20;99.90;;;;;;5011629;28;20981;-71
2021/04/10 12:08:23;;;;;;;23.80;19.73;;;13.10;99.90;;;;;;5000686;28;20431;-72
2021/04/10 12:10:53;;;;;;;23.60;20.37;;;13.00;99.90;;;;;;4993859;28;20406;-72
2021/04/10 12:13:21;;;;;;;24.07;20.50;;;12.90;99.90;;;;;;4994363;28;20411;-73
2021/04/10 12:15:55;;;;;;;26.17;20.97;;;12.80;99.90;;;;;;4993979;28;20925;-72
2021/04/10 12:18:23;;;;;;;20.20;17.37;;;12.70;99.90;;;;;;4996532;28;20434;-74
2021/04/10 12:20:50;;;;;;;18.87;16.87;;;12.50;99.90;;;;;;5012271;28;20474;-73
2021/04/10 12:23:16;;;;;;;19.03;16.53;;;12.40;99.90;;;;;;5012259;28;20414;-73
2021/04/10 12:25:42;;;;;;;17.47;15.70;;;12.40;99.90;;;;;;5013072;28;20453;-72
2021/04/10 12:28:08;;;;;;;19.93;16.20;;;12.40;99.90;;;;;;5013525;28;20434;-72
2021/04/10 12:30:34;;;;;;;16.57;14.87;;;12.30;99.90;;;;;;5013583;28;20407;-71
2021/04/10 12:33:01;;;;;;;17.90;16.10;;;12.30;99.90;;;;;;5012915;28;20837;-71
2021/04/10 12:35:26;;;;;;;17.03;15.23;;;12.40;99.90;;;;;;5013264;28;20294;-73
2021/04/10 12:37:52;;;;;;;17.80;15.67;;;12.40;99.90;;;;;;5023963;28;20899;-73
2021/04/10 12:40:19;;;;;;;21.37;16.03;;;12.40;99.90;;;;;;5032830;28;20621;-72
2021/04/10 12:42:45;;;;;;;19.03;16.87;;;12.40;99.90;;;;;;5033071;28;20541;-73
2021/04/10 12:45:11;;;;;;;18.70;15.40;;;12.40;99.90;;;;;;5032582;28;20521;-73